Higman Leader — WDH6840 — position and weather

sailwx.info

Track history (hours):
 
Tides and Currents Weather Stations Pressure Air Temp Water Temp Dewpoint Dewpoint Depression Visibility Wind Speed Wind Dir Waves Ship Positions

Higman Leader

Owner: Higman Barge Lines, Inc., Orange, TX. More information available from US FCC via Universal Licensing System and Coast Guard Vessel Documentation Center.

Last reported at 2017-Dec-11 15:41 UTC. Time now 2017-Dec-14 08:16 UTC.
Position N 30°05' W 093°44'.

Length 35 m; draft 3 m.

Type: Towing. MMSI: 367642130.

Date/timePositionNaut miles runAvg speedWind from/ knotsBaromVisibWave heightAir tempDewpointWater temp
2017-Dec-11 15:41N 30°05' W 093°44'1 0.1
2017-Dec-11 10:10N 30°05' W 093°44'0 0.0
2017-Dec-11 09:49N 30°05' W 093°44'0 0.0
2017-Dec-11 09:30N 30°05' W 093°44'0 0.0
2017-Dec-11 09:00N 30°05' W 093°44'0 0.0
2017-Dec-11 08:29N 30°05' W 093°44'0 0.0
2017-Dec-11 07:56N 30°05' W 093°44'0 0.0
2017-Dec-11 07:30N 30°05' W 093°44'0 0.0
2017-Dec-11 07:01N 30°05' W 093°44'0 0.0
2017-Dec-11 06:30N 30°05' W 093°44'0 0.0
2017-Dec-11 05:56N 30°05' W 093°44'0 0.0
2017-Dec-11 05:29N 30°05' W 093°44'0 0.0
2017-Dec-11 04:43N 30°05' W 093°44'0 0.0
2017-Dec-11 04:30N 30°05' W 093°44'0 0.0
2017-Dec-11 03:58N 30°05' W 093°44'0 0.0
2017-Dec-10 15:23N 30°05' W 093°44'0 0.0
2017-Dec-10 14:59N 30°05' W 093°44'0 0.0
2017-Dec-10 13:49N 30°05' W 093°44'0 0.0
2017-Dec-10 13:28N 30°05' W 093°44'0 0.0
2017-Dec-10 12:58N 30°05' W 093°44'0 0.0
2017-Dec-10 00:46N 30°05' W 093°43'1 1.6
2017-Dec-10 00:24N 30°05' W 093°44'0 0.0
2017-Dec-09 10:17N 30°05' W 093°44'0 0.0
2017-Dec-09 10:00N 30°05' W 093°44'0 0.0
2017-Dec-09 09:30N 30°05' W 093°44'  
2017-Dec-04 10:24N 30°04' W 093°35'2 4.2
2017-Dec-04 10:00N 30°04' W 093°33'3 5.7
2017-Dec-04 09:31N 30°04' W 093°29'3 5.6
2017-Dec-04 09:01N 30°04' W 093°26'3 5.8
2017-Dec-04 08:31N 30°04' W 093°23'2 4.4
2017-Dec-04 08:01N 30°04' W 093°20'2 4.4
2017-Dec-04 07:31N 30°06' W 093°19'1 2.9
2017-Dec-04 07:01N 30°05' W 093°17'1 1.7
2017-Dec-04 06:31N 30°05' W 093°17'1 1.3
2017-Dec-04 06:01N 30°04' W 093°16'1 1.6
2017-Dec-04 05:30N 30°04' W 093°16'0 0.1
2017-Dec-04 05:00N 30°04' W 093°16'0 0.0
2017-Dec-04 04:31N 30°04' W 093°16'0 0.1
2017-Dec-04 04:01N 30°04' W 093°16'0 0.0
2017-Dec-04 03:30N 30°04' W 093°16'1 2.3
2017-Dec-04 03:01N 30°02' W 093°16'2 4.6
2017-Dec-04 02:31N 30°01' W 093°14'3 5.8
2017-Dec-04 02:01N 29°58' W 093°12'3 6.1
2017-Dec-04 01:31N 29°56' W 093°09'42 5.8
2017-Dec-03 18:16N 29°51' W 092°22'1 5.4
2017-Dec-03 18:01N 29°51' W 092°20'3 5.5
2017-Dec-03 17:31N 29°49' W 092°17'3 5.6
2017-Dec-03 17:01N 29°48' W 092°15'3 5.4
2017-Dec-03 16:31N 29°47' W 092°12'0 0.4
2017-Dec-03 16:01N 29°47' W 092°11'0 0.0
2017-Dec-03 15:31N 29°47' W 092°11'0 0.0
2017-Dec-03 15:00N 29°47' W 092°11'0 0.0
2017-Dec-03 14:26N 29°47' W 092°11'0 0.0
2017-Dec-03 14:00N 29°47' W 092°11'0 0.0
2017-Dec-03 13:26N 29°47' W 092°11'0 0.0
2017-Dec-03 12:58N 29°47' W 092°11'0 0.0
2017-Dec-03 12:29N 29°47' W 092°11'0 0.0
2017-Dec-03 12:01N 29°47' W 092°11'0 0.0
2017-Dec-03 11:31N 29°47' W 092°11'0 0.0
2017-Dec-03 11:00N 29°47' W 092°11'0 0.0
2017-Dec-03 10:31N 29°47' W 092°11'0 0.0
2017-Dec-03 10:01N 29°47' W 092°11'0 0.0
2017-Dec-03 09:30N 29°47' W 092°11'0 0.0
2017-Dec-03 09:00N 29°47' W 092°11'0 0.0
2017-Dec-03 08:31N 29°47' W 092°11'0 0.0
2017-Dec-03 08:01N 29°47' W 092°11'0 0.1
2017-Dec-03 07:31N 29°47' W 092°11'0 0.0
2017-Dec-03 06:58N 29°47' W 092°11'0 0.0
2017-Dec-03 06:31N 29°47' W 092°11'0 0.0
2017-Dec-03 05:56N 29°47' W 092°11'0 0.0
2017-Dec-03 05:31N 29°47' W 092°11'0 0.0
2017-Dec-03 04:55N 29°47' W 092°11'0 0.0
2017-Dec-03 04:31N 29°47' W 092°11'0 0.0
2017-Dec-03 03:56N 29°47' W 092°11'0 0.0
2017-Dec-03 03:31N 29°47' W 092°11'0 0.0
2017-Dec-03 02:55N 29°47' W 092°11'0 0.0
2017-Dec-03 02:28N 29°47' W 092°11'0 0.0
2017-Dec-03 02:01N 29°47' W 092°11'0 0.0
2017-Dec-03 01:31N 29°47' W 092°11'0 0.2
2017-Dec-03 01:00N 29°47' W 092°11'0 0.5
2017-Dec-03 00:31N 29°47' W 092°11'1 1.1
2017-Dec-03 00:00N 29°47' W 092°10'3 5.2
2017-Dec-02 23:31N 29°47' W 092°08'3 5.8
2017-Dec-02 23:01N 29°48' W 092°04'3 5.7
2017-Dec-02 22:31N 29°49' W 092°01'3 6.3
2017-Dec-02 22:01N 29°50' W 091°58'3 5.4
2017-Dec-02 21:31N 29°51' W 091°55'5 6.1
2017-Dec-02 20:44N 29°50' W 091°50'  
Track history (hours):
 
Tides and Currents Weather Stations Pressure Air Temp Water Temp Dewpoint Dewpoint Depression Visibility Wind Speed Wind Dir Waves Ship Positions

Higman Leader

Owner: Higman Barge Lines, Inc., Orange, TX. More information available from US FCC via Universal Licensing System and Coast Guard Vessel Documentation Center.

Last reported at 2017-Dec-11 15:41 UTC. Time now 2017-Dec-14 08:16 UTC.
Position N 30°05' W 093°44'.

Length 35 m; draft 3 m.

Type: Towing. MMSI: 367642130.

Date/timePositionNaut miles runAvg speedWind from/ knotsBaromVisibWave heightAir tempDewpointWater temp
2017-Dec-11 15:41N 30°05' W 093°44'1 0.1
2017-Dec-11 10:10N 30°05' W 093°44'0 0.0
2017-Dec-11 09:49N 30°05' W 093°44'0 0.0
2017-Dec-11 09:30N 30°05' W 093°44'0 0.0
2017-Dec-11 09:00N 30°05' W 093°44'0 0.0
2017-Dec-11 08:29N 30°05' W 093°44'0 0.0
2017-Dec-11 07:56N 30°05' W 093°44'0 0.0
2017-Dec-11 07:30N 30°05' W 093°44'0 0.0
2017-Dec-11 07:01N 30°05' W 093°44'0 0.0
2017-Dec-11 06:30N 30°05' W 093°44'0 0.0
2017-Dec-11 05:56N 30°05' W 093°44'0 0.0
2017-Dec-11 05:29N 30°05' W 093°44'0 0.0
2017-Dec-11 04:43N 30°05' W 093°44'0 0.0
2017-Dec-11 04:30N 30°05' W 093°44'0 0.0
2017-Dec-11 03:58N 30°05' W 093°44'0 0.0
2017-Dec-10 15:23N 30°05' W 093°44'0 0.0
2017-Dec-10 14:59N 30°05' W 093°44'0 0.0
2017-Dec-10 13:49N 30°05' W 093°44'0 0.0
2017-Dec-10 13:28N 30°05' W 093°44'0 0.0
2017-Dec-10 12:58N 30°05' W 093°44'0 0.0
2017-Dec-10 00:46N 30°05' W 093°43'1 1.6
2017-Dec-10 00:24N 30°05' W 093°44'0 0.0
2017-Dec-09 10:17N 30°05' W 093°44'0 0.0
2017-Dec-09 10:00N 30°05' W 093°44'0 0.0
2017-Dec-09 09:30N 30°05' W 093°44'  
2017-Dec-04 10:24N 30°04' W 093°35'2 4.2
2017-Dec-04 10:00N 30°04' W 093°33'3 5.7
2017-Dec-04 09:31N 30°04' W 093°29'3 5.6
2017-Dec-04 09:01N 30°04' W 093°26'3 5.8
2017-Dec-04 08:31N 30°04' W 093°23'2 4.4
2017-Dec-04 08:01N 30°04' W 093°20'2 4.4
2017-Dec-04 07:31N 30°06' W 093°19'1 2.9
2017-Dec-04 07:01N 30°05' W 093°17'1 1.7
2017-Dec-04 06:31N 30°05' W 093°17'1 1.3
2017-Dec-04 06:01N 30°04' W 093°16'1 1.6
2017-Dec-04 05:30N 30°04' W 093°16'0 0.1
2017-Dec-04 05:00N 30°04' W 093°16'0 0.0
2017-Dec-04 04:31N 30°04' W 093°16'0 0.1
2017-Dec-04 04:01N 30°04' W 093°16'0 0.0
2017-Dec-04 03:30N 30°04' W 093°16'1 2.3
2017-Dec-04 03:01N 30°02' W 093°16'2 4.6
2017-Dec-04 02:31N 30°01' W 093°14'3 5.8
2017-Dec-04 02:01N 29°58' W 093°12'3 6.1
2017-Dec-04 01:31N 29°56' W 093°09'42 5.8
2017-Dec-03 18:16N 29°51' W 092°22'1 5.4
2017-Dec-03 18:01N 29°51' W 092°20'3 5.5
2017-Dec-03 17:31N 29°49' W 092°17'3 5.6
2017-Dec-03 17:01N 29°48' W 092°15'3 5.4
2017-Dec-03 16:31N 29°47' W 092°12'0 0.4
2017-Dec-03 16:01N 29°47' W 092°11'0 0.0
2017-Dec-03 15:31N 29°47' W 092°11'0 0.0
2017-Dec-03 15:00N 29°47' W 092°11'0 0.0
2017-Dec-03 14:26N 29°47' W 092°11'0 0.0
2017-Dec-03 14:00N 29°47' W 092°11'0 0.0
2017-Dec-03 13:26N 29°47' W 092°11'0 0.0
2017-Dec-03 12:58N 29°47' W 092°11'0 0.0
2017-Dec-03 12:29N 29°47' W 092°11'0 0.0
2017-Dec-03 12:01N 29°47' W 092°11'0 0.0
2017-Dec-03 11:31N 29°47' W 092°11'0 0.0
2017-Dec-03 11:00N 29°47' W 092°11'0 0.0
2017-Dec-03 10:31N 29°47' W 092°11'0 0.0
2017-Dec-03 10:01N 29°47' W 092°11'0 0.0
2017-Dec-03 09:30N 29°47' W 092°11'0 0.0
2017-Dec-03 09:00N 29°47' W 092°11'0 0.0
2017-Dec-03 08:31N 29°47' W 092°11'0 0.0
2017-Dec-03 08:01N 29°47' W 092°11'0 0.1
2017-Dec-03 07:31N 29°47' W 092°11'0 0.0
2017-Dec-03 06:58N 29°47' W 092°11'0 0.0
2017-Dec-03 06:31N 29°47' W 092°11'0 0.0
2017-Dec-03 05:56N 29°47' W 092°11'0 0.0
2017-Dec-03 05:31N 29°47' W 092°11'0 0.0
2017-Dec-03 04:55N 29°47' W 092°11'0 0.0
2017-Dec-03 04:31N 29°47' W 092°11'0 0.0
2017-Dec-03 03:56N 29°47' W 092°11'0 0.0
2017-Dec-03 03:31N 29°47' W 092°11'0 0.0
2017-Dec-03 02:55N 29°47' W 092°11'0 0.0
2017-Dec-03 02:28N 29°47' W 092°11'0 0.0
2017-Dec-03 02:01N 29°47' W 092°11'0 0.0
2017-Dec-03 01:31N 29°47' W 092°11'0 0.2
2017-Dec-03 01:00N 29°47' W 092°11'0 0.5
2017-Dec-03 00:31N 29°47' W 092°11'1 1.1
2017-Dec-03 00:00N 29°47' W 092°10'3 5.2
2017-Dec-02 23:31N 29°47' W 092°08'3 5.8
2017-Dec-02 23:01N 29°48' W 092°04'3 5.7
2017-Dec-02 22:31N 29°49' W 092°01'3 6.3
2017-Dec-02 22:01N 29°50' W 091°58'3 5.4
2017-Dec-02 21:31N 29°51' W 091°55'5 6.1
2017-Dec-02 20:44N 29°50' W 091°50'  

Dump ship's entire track history